sensor_id;sensor_type;location;lat;lon;timestamp;pressure;altitude;pressure_sealevel;temperature;humidity
13387;BME280;6763;48.524;9.044;2023-05-25T00:01:34;98116.72;;;16.53;33.66
13387;BME280;6763;48.524;9.044;2023-05-25T00:04:00;98111.50;;;16.53;33.65
13387;BME280;6763;48.524;9.044;2023-05-25T00:06:30;98114.97;;;16.54;33.30
13387;BME280;6763;48.524;9.044;2023-05-25T00:08:56;98113.25;;;16.53;33.51
13387;BME280;6763;48.524;9.044;2023-05-25T00:11:25;98108.03;;;16.53;33.98
13387;BME280;6763;48.524;9.044;2023-05-25T00:13:51;98106.41;;;16.49;33.95
13387;BME280;6763;48.524;9.044;2023-05-25T00:16:16;98103.13;;;16.44;34.40
13387;BME280;6763;48.524;9.044;2023-05-25T00:18:42;98101.47;;;16.41;34.31
13387;BME280;6763;48.524;9.044;2023-05-25T00:21:08;98096.28;;;16.40;34.16
13387;BME280;6763;48.524;9.044;2023-05-25T00:23:33;98101.50;;;16.40;34.57
13387;BME280;6763;48.524;9.044;2023-05-25T00:26:02;98097.22;;;16.39;34.45
13387;BME280;6763;48.524;9.044;2023-05-25T00:28:28;98097.25;;;16.37;34.76
13387;BME280;6763;48.524;9.044;2023-05-25T00:30:53;98092.97;;;16.36;34.63
13387;BME280;6763;48.524;9.044;2023-05-25T00:33:19;98101.63;;;16.37;34.54
13387;BME280;6763;48.524;9.044;2023-05-25T00:35:44;98106.13;;;16.33;34.85
13387;BME280;6763;48.524;9.044;2023-05-25T00:38:15;98102.66;;;16.33;34.63
13387;BME280;6763;48.524;9.044;2023-05-25T00:40:41;98097.50;;;16.31;34.93
13387;BME280;6763;48.524;9.044;2023-05-25T00:43:11;98095.72;;;16.32;35.08
13387;BME280;6763;48.524;9.044;2023-05-25T00:45:37;98099.25;;;16.31;35.05
13387;BME280;6763;48.524;9.044;2023-05-25T00:48:03;98094.88;;;16.31;35.07
13387;BME280;6763;48.524;9.044;2023-05-25T00:50:40;98098.28;;;16.33;35.04
13387;BME280;6763;48.524;9.044;2023-05-25T00:53:07;98099.94;;;16.36;34.93
13387;BME280;6763;48.524;9.044;2023-05-25T00:55:38;98104.97;;;16.40;35.06
13387;BME280;6763;48.524;9.044;2023-05-25T00:58:07;98103.97;;;16.44;34.98
13387;BME280;6763;48.524;9.044;2023-05-25T01:00:34;98101.31;;;16.46;34.93
13387;BME280;6763;48.524;9.044;2023-05-25T01:03:03;98097.66;;;16.50;35.12
13387;BME280;6763;48.524;9.044;2023-05-25T01:05:33;98095.84;;;16.52;35.49
13387;BME280;6763;48.524;9.044;2023-05-25T01:08:00;98096.69;;;16.54;35.19
13387;BME280;6763;48.524;9.044;2023-05-25T01:10:30;98102.69;;;16.56;35.09
13387;BME280;6763;48.524;9.044;2023-05-25T01:12:57;98094.84;;;16.56;35.38
13387;BME280;6763;48.524;9.044;2023-05-25T01:15:24;98102.59;;;16.59;35.29
13387;BME280;6763;48.524;9.044;2023-05-25T01:17:50;98090.31;;;16.61;35.39
13387;BME280;6763;48.524;9.044;2023-05-25T01:20:18;98091.09;;;16.63;35.83
13387;BME280;6763;48.524;9.044;2023-05-25T01:22:46;98087.50;;;16.65;35.44
13387;BME280;6763;48.524;9.044;2023-05-25T01:25:26;98087.56;;;16.64;35.53
13387;BME280;6763;48.524;9.044;2023-05-25T01:28:01;98087.69;;;16.61;35.67
13387;BME280;6763;48.524;9.044;2023-05-25T01:30:29;98090.41;;;16.58;35.68
13387;BME280;6763;48.524;9.044;2023-05-25T01:32:56;98080.19;;;16.52;36.05
13387;BME280;6763;48.524;9.044;2023-05-25T01:35:24;98094.31;;;16.46;35.98
13387;BME280;6763;48.524;9.044;2023-05-25T01:37:51;98093.69;;;16.40;36.13
13387;BME280;6763;48.524;9.044;2023-05-25T01:40:17;98088.69;;;16.34;36.39
13387;BME280;6763;48.524;9.044;2023-05-25T01:42:42;98085.44;;;16.27;36.45
13387;BME280;6763;48.524;9.044;2023-05-25T01:45:08;98090.78;;;16.24;36.69
13387;BME280;6763;48.524;9.044;2023-05-25T01:47:47;98093.56;;;16.20;36.62
13387;BME280;6763;48.524;9.044;2023-05-25T01:50:25;98094.63;;;16.14;36.96
13387;BME280;6763;48.524;9.044;2023-05-25T01:53:03;98094.78;;;16.09;37.04
13387;BME280;6763;48.524;9.044;2023-05-25T01:55:41;98097.59;;;16.05;37.12
13387;BME280;6763;48.524;9.044;2023-05-25T01:58:08;98098.53;;;16.02;37.30
13387;BME280;6763;48.524;9.044;2023-05-25T02:00:36;98101.16;;;16.02;37.12
13387;BME280;6763;48.524;9.044;2023-05-25T02:03:03;98094.28;;;16.00;37.20
13387;BME280;6763;48.524;9.044;2023-05-25T02:05:29;98088.25;;;15.98;37.33
13387;BME280;6763;48.524;9.044;2023-05-25T02:07:54;98090.13;;;15.94;37.63
13387;BME280;6763;48.524;9.044;2023-05-25T02:10:20;98087.63;;;15.91;37.81
13387;BME280;6763;48.524;9.044;2023-05-25T02:12:45;98091.19;;;15.89;37.89
13387;BME280;6763;48.524;9.044;2023-05-25T02:15:11;98088.66;;;15.87;37.69
13387;BME280;6763;48.524;9.044;2023-05-25T02:17:36;98089.53;;;15.86;37.87
13387;BME280;6763;48.524;9.044;2023-05-25T02:20:03;98079.16;;;15.85;38.24
13387;BME280;6763;48.524;9.044;2023-05-25T02:22:31;98075.69;;;15.84;37.88
13387;BME280;6763;48.524;9.044;2023-05-25T02:24:57;98071.38;;;15.83;38.21
13387;BME280;6763;48.524;9.044;2023-05-25T02:27:22;98082.59;;;15.85;38.03
13387;BME280;6763;48.524;9.044;2023-05-25T02:29:47;98078.31;;;15.84;38.26
13387;BME280;6763;48.524;9.044;2023-05-25T02:32:13;98081.81;;;15.83;38.17
13387;BME280;6763;48.524;9.044;2023-05-25T02:34:38;98074.03;;;15.82;38.36
13387;BME280;6763;48.524;9.044;2023-05-25T02:37:04;98087.13;;;15.80;38.36
13387;BME280;6763;48.524;9.044;2023-05-25T02:39:29;98083.66;;;15.80;38.72
13387;BME280;6763;48.524;9.044;2023-05-25T02:41:54;98082.00;;;15.77;38.56
13387;BME280;6763;48.524;9.044;2023-05-25T02:44:20;98082.06;;;15.76;38.66
13387;BME280;6763;48.524;9.044;2023-05-25T02:46:46;98080.50;;;15.72;38.86
13387;BME280;6763;48.524;9.044;2023-05-25T02:49:11;98079.72;;;15.68;38.83
13387;BME280;6763;48.524;9.044;2023-05-25T02:51:36;98075.50;;;15.64;38.85
13387;BME280;6763;48.524;9.044;2023-05-25T02:54:02;98073.91;;;15.60;38.90
13387;BME280;6763;48.524;9.044;2023-05-25T02:56:27;98076.72;;;15.54;39.18
13387;BME280;6763;48.524;9.044;2023-05-25T02:58:52;98074.28;;;15.49;39.42
13387;BME280;6763;48.524;9.044;2023-05-25T03:01:18;98081.34;;;15.46;39.38
13387;BME280;6763;48.524;9.044;2023-05-25T03:03:45;98083.22;;;15.41;39.24
13387;BME280;6763;48.524;9.044;2023-05-25T03:06:11;98081.63;;;15.37;39.78
13387;BME280;6763;48.524;9.044;2023-05-25T03:08:37;98085.25;;;15.33;39.64
13387;BME280;6763;48.524;9.044;2023-05-25T03:11:03;98084.50;;;15.29;39.97
13387;BME280;6763;48.524;9.044;2023-05-25T03:13:28;98077.66;;;15.25;40.08
13387;BME280;6763;48.524;9.044;2023-05-25T03:15:54;98084.75;;;15.22;39.75
13387;BME280;6763;48.524;9.044;2023-05-25T03:18:19;98086.59;;;15.18;40.21
13387;BME280;6763;48.524;9.044;2023-05-25T03:20:44;98094.47;;;15.17;39.83
13387;BME280;6763;48.524;9.044;2023-05-25T03:23:10;98098.88;;;15.15;40.09
13387;BME280;6763;48.524;9.044;2023-05-25T03:25:35;98103.28;;;15.13;40.43
13387;BME280;6763;48.524;9.044;2023-05-25T03:28:00;98099.88;;;15.11;40.43
13387;BME280;6763;48.524;9.044;2023-05-25T03:30:26;98096.50;;;15.07;40.53
13387;BME280;6763;48.524;9.044;2023-05-25T03:32:51;98093.00;;;15.08;40.31
13387;BME280;6763;48.524;9.044;2023-05-25T03:35:17;98099.16;;;15.06;40.55
13387;BME280;6763;48.524;9.044;2023-05-25T03:37:42;98093.09;;;15.05;40.39
13387;BME280;6763;48.524;9.044;2023-05-25T03:40:08;98091.34;;;15.06;40.64
13387;BME280;6763;48.524;9.044;2023-05-25T03:42:34;98092.13;;;15.08;40.75
13387;BME280;6763;48.524;9.044;2023-05-25T03:44:59;98088.66;;;15.07;40.75
13387;BME280;6763;48.524;9.044;2023-05-25T03:47:24;98085.25;;;15.05;40.58
13387;BME280;6763;48.524;9.044;2023-05-25T03:49:50;98085.34;;;15.02;40.84
13387;BME280;6763;48.524;9.044;2023-05-25T03:52:15;98088.88;;;15.01;40.86
13387;BME280;6763;48.524;9.044;2023-05-25T03:54:40;98090.69;;;14.99;40.86
13387;BME280;6763;48.524;9.044;2023-05-25T03:57:06;98095.91;;;14.99;40.93
13387;BME280;6763;48.524;9.044;2023-05-25T03:59:31;98098.50;;;14.99;41.18
13387;BME280;6763;48.524;9.044;2023-05-25T04:01:56;98102.88;;;14.99;41.06
13387;BME280;6763;48.524;9.044;2023-05-25T04:04:22;98108.09;;;14.99;41.67
13387;BME280;6763;48.524;9.044;2023-05-25T04:06:47;98112.53;;;14.95;41.63
13387;BME280;6763;48.524;9.044;2023-05-25T04:09:16;98109.91;;;14.95;41.38
13387;BME280;6763;48.524;9.044;2023-05-25T04:11:41;98104.69;;;14.95;41.70
13387;BME280;6763;48.524;9.044;2023-05-25T04:14:07;98110.69;;;14.99;41.51
13387;BME280;6763;48.524;9.044;2023-05-25T04:16:32;98100.09;;;15.03;41.67
13387;BME280;6763;48.524;9.044;2023-05-25T04:18:57;98097.25;;;15.11;41.63
13387;BME280;6763;48.524;9.044;2023-05-25T04:21:23;98110.03;;;15.18;41.62
13387;BME280;6763;48.524;9.044;2023-05-25T04:23:48;98108.13;;;15.25;41.40
13387;BME280;6763;48.524;9.044;2023-05-25T04:26:13;98108.81;;;15.30;41.40
13387;BME280;6763;48.524;9.044;2023-05-25T04:28:40;98108.59;;;15.36;41.22
13387;BME280;6763;48.524;9.044;2023-05-25T04:31:06;98112.84;;;15.40;41.34
13387;BME280;6763;48.524;9.044;2023-05-25T04:33:33;98109.22;;;15.45;41.37
13387;BME280;6763;48.524;9.044;2023-05-25T04:36:05;98109.28;;;15.69;41.14
13387;BME280;6763;48.524;9.044;2023-05-25T04:38:31;98109.72;;;16.06;40.68
13387;BME280;6763;48.524;9.044;2023-05-25T04:40:57;98109.03;;;16.49;39.97
13387;BME280;6763;48.524;9.044;2023-05-25T04:43:23;98103.06;;;16.92;39.06
13387;BME280;6763;48.524;9.044;2023-05-25T04:45:51;98103.22;;;17.30;38.40
13387;BME280;6763;48.524;9.044;2023-05-25T04:48:16;98102.63;;;17.67;38.00
13387;BME280;6763;48.524;9.044;2023-05-25T04:50:42;98101.50;;;17.93;37.27
13387;BME280;6763;48.524;9.044;2023-05-25T04:53:07;98103.16;;;18.16;36.89
13387;BME280;6763;48.524;9.044;2023-05-25T04:55:34;98104.41;;;18.46;36.65
13387;BME280;6763;48.524;9.044;2023-05-25T04:58:00;98111.88;;;18.74;35.98
13387;BME280;6763;48.524;9.044;2023-05-25T05:00:25;98117.69;;;18.99;35.36
13387;BME280;6763;48.524;9.044;2023-05-25T05:02:53;98118.41;;;19.21;35.14
13387;BME280;6763;48.524;9.044;2023-05-25T05:05:20;98126.91;;;19.45;34.61
13387;BME280;6763;48.524;9.044;2023-05-25T05:07:46;98118.75;;;19.68;34.25
13387;BME280;6763;48.524;9.044;2023-05-25T05:10:11;98119.03;;;19.96;34.08
13387;BME280;6763;48.524;9.044;2023-05-25T05:12:37;98118.56;;;20.22;33.40
13387;BME280;6763;48.524;9.044;2023-05-25T05:15:03;98117.38;;;20.45;32.92
13387;BME280;6763;48.524;9.044;2023-05-25T05:17:28;98121.47;;;20.51;32.61
13387;BME280;6763;48.524;9.044;2023-05-25T05:19:55;98125.19;;;20.47;32.78
13387;BME280;6763;48.524;9.044;2023-05-25T05:22:20;98132.09;;;20.49;32.68
13387;BME280;6763;48.524;9.044;2023-05-25T05:24:45;98134.47;;;20.54;32.58
13387;BME280;6763;48.524;9.044;2023-05-25T05:27:12;98136.84;;;20.58;32.57
13387;BME280;6763;48.524;9.044;2023-05-25T05:29:38;98139.81;;;20.68;32.57
13387;BME280;6763;48.524;9.044;2023-05-25T05:32:04;98145.38;;;20.79;32.22
13387;BME280;6763;48.524;9.044;2023-05-25T05:34:29;98150.31;;;20.85;32.19
13387;BME280;6763;48.524;9.044;2023-05-25T05:36:55;98157.78;;;20.77;32.24
13387;BME280;6763;48.524;9.044;2023-05-25T05:39:20;98160.16;;;20.49;32.38
13387;BME280;6763;48.524;9.044;2023-05-25T05:41:46;98159.44;;;20.11;32.73
13387;BME280;6763;48.524;9.044;2023-05-25T05:44:11;98155.75;;;19.80;33.27
13387;BME280;6763;48.524;9.044;2023-05-25T05:46:37;98161.00;;;19.63;33.80
13387;BME280;6763;48.524;9.044;2023-05-25T05:49:02;98159.09;;;19.48;34.09
13387;BME280;6763;48.524;9.044;2023-05-25T05:51:28;98163.94;;;19.39;34.32
13387;BME280;6763;48.524;9.044;2023-05-25T05:53:54;98156.69;;;19.25;34.34
13387;BME280;6763;48.524;9.044;2023-05-25T05:56:19;98159.03;;;19.12;34.82
13387;BME280;6763;48.524;9.044;2023-05-25T05:58:46;98165.22;;;19.11;34.85
13387;BME280;6763;48.524;9.044;2023-05-25T06:01:16;98165.00;;;19.16;34.92
13387;BME280;6763;48.524;9.044;2023-05-25T06:03:42;98161.09;;;19.25;34.86
13387;BME280;6763;48.524;9.044;2023-05-25T06:06:08;98174.53;;;19.36;34.99
13387;BME280;6763;48.524;9.044;2023-05-25T06:08:34;98171.44;;;19.46;34.77
13387;BME280;6763;48.524;9.044;2023-05-25T06:10:59;98172.00;;;19.53;34.63
13387;BME280;6763;48.524;9.044;2023-05-25T06:13:24;98166.53;;;19.57;34.83
13387;BME280;6763;48.524;9.044;2023-05-25T06:15:50;98173.41;;;19.60;34.62
13387;BME280;6763;48.524;9.044;2023-05-25T06:18:15;98176.91;;;19.60;34.80
13387;BME280;6763;48.524;9.044;2023-05-25T06:20:40;98181.00;;;19.66;34.70
13387;BME280;6763;48.524;9.044;2023-05-25T06:23:06;98171.13;;;19.71;34.88
13387;BME280;6763;48.524;9.044;2023-05-25T06:25:33;98172.44;;;19.79;34.84
13387;BME280;6763;48.524;9.044;2023-05-25T06:27:58;98175.53;;;19.88;34.74
13387;BME280;6763;48.524;9.044;2023-05-25T06:30:23;98159.22;;;19.98;34.58
13387;BME280;6763;48.524;9.044;2023-05-25T06:32:49;98166.44;;;20.12;34.39
13387;BME280;6763;48.524;9.044;2023-05-25T06:35:14;98167.75;;;20.20;34.44
13387;BME280;6763;48.524;9.044;2023-05-25T06:37:45;98166.28;;;20.32;34.24
13387;BME280;6763;48.524;9.044;2023-05-25T06:40:11;98167.34;;;20.45;34.23
13387;BME280;6763;48.524;9.044;2023-05-25T06:42:36;98169.25;;;20.59;34.02
13387;BME280;6763;48.524;9.044;2023-05-25T06:45:03;98169.31;;;20.74;33.96
13387;BME280;6763;48.524;9.044;2023-05-25T06:47:28;98171.84;;;20.76;33.71
13387;BME280;6763;48.524;9.044;2023-05-25T06:49:54;98174.47;;;20.76;33.73
13387;BME280;6763;48.524;9.044;2023-05-25T06:52:20;98175.84;;;20.67;33.78
13387;BME280;6763;48.524;9.044;2023-05-25T06:54:45;98180.19;;;20.51;34.10
13387;BME280;6763;48.524;9.044;2023-05-25T06:57:11;98180.81;;;20.39;34.31
13387;BME280;6763;48.524;9.044;2023-05-25T06:59:36;98188.78;;;20.37;34.62
13387;BME280;6763;48.524;9.044;2023-05-25T07:02:02;98184.44;;;20.36;34.56
13387;BME280;6763;48.524;9.044;2023-05-25T07:04:27;98183.44;;;20.39;34.76
13387;BME280;6763;48.524;9.044;2023-05-25T07:06:53;98192.63;;;20.48;34.60
13387;BME280;6763;48.524;9.044;2023-05-25T07:09:18;98190.81;;;20.65;34.71
13387;BME280;6763;48.524;9.044;2023-05-25T07:11:43;98188.16;;;20.82;34.27
13387;BME280;6763;48.524;9.044;2023-05-25T07:14:09;98189.53;;;20.89;34.34
13387;BME280;6763;48.524;9.044;2023-05-25T07:16:34;98190.53;;;20.87;34.43
13387;BME280;6763;48.524;9.044;2023-05-25T07:19:00;98199.25;;;20.72;34.58
13387;BME280;6763;48.524;9.044;2023-05-25T07:21:25;98197.78;;;20.66;34.68
13387;BME280;6763;48.524;9.044;2023-05-25T07:23:51;98202.91;;;20.69;34.60
13387;BME280;6763;48.524;9.044;2023-05-25T07:26:16;98202.81;;;20.71;34.58
13387;BME280;6763;48.524;9.044;2023-05-25T07:28:41;98202.75;;;20.72;34.79
13387;BME280;6763;48.524;9.044;2023-05-25T07:31:08;98200.03;;;20.74;34.74
13387;BME280;6763;48.524;9.044;2023-05-25T07:33:34;98190.66;;;20.85;34.80
13387;BME280;6763;48.524;9.044;2023-05-25T07:35:59;98201.63;;;21.09;34.75
13387;BME280;6763;48.524;9.044;2023-05-25T07:38:25;98200.91;;;21.38;34.18
13387;BME280;6763;48.524;9.044;2023-05-25T07:40:50;98193.09;;;21.68;34.02
13387;BME280;6763;48.524;9.044;2023-05-25T07:43:16;98207.44;;;21.94;33.55
13387;BME280;6763;48.524;9.044;2023-05-25T07:45:42;98212.00;;;22.06;33.33
13387;BME280;6763;48.524;9.044;2023-05-25T07:48:07;98212.50;;;22.12;33.02
13387;BME280;6763;48.524;9.044;2023-05-25T07:50:33;98212.00;;;22.06;32.93
13387;BME280;6763;48.524;9.044;2023-05-25T07:52:59;98216.78;;;21.99;33.35
13387;BME280;6763;48.524;9.044;2023-05-25T07:55:25;98215.31;;;22.09;33.36
13387;BME280;6763;48.524;9.044;2023-05-25T07:57:50;98210.69;;;22.13;33.28
13387;BME280;6763;48.524;9.044;2023-05-25T08:00:16;98216.41;;;22.05;33.15
13387;BME280;6763;48.524;9.044;2023-05-25T08:02:42;98212.78;;;21.92;33.61
13387;BME280;6763;48.524;9.044;2023-05-25T08:05:08;98217.41;;;21.89;33.81
13387;BME280;6763;48.524;9.044;2023-05-25T08:07:34;98221.06;;;21.86;33.90
13387;BME280;6763;48.524;9.044;2023-05-25T08:09:59;98215.34;;;21.78;34.09
13387;BME280;6763;48.524;9.044;2023-05-25T08:12:25;98212.72;;;21.78;34.09
13387;BME280;6763;48.524;9.044;2023-05-25T08:14:51;98205.38;;;21.83;33.93
13387;BME280;6763;48.524;9.044;2023-05-25T08:17:18;98214.38;;;21.79;33.98
13387;BME280;6763;48.524;9.044;2023-05-25T08:19:43;98211.78;;;21.63;34.15
13387;BME280;6763;48.524;9.044;2023-05-25T08:22:08;98212.56;;;21.66;34.37
13387;BME280;6763;48.524;9.044;2023-05-25T08:24:35;98216.94;;;21.81;34.50
13387;BME280;6763;48.524;9.044;2023-05-25T08:27:01;98220.00;;;22.04;34.31
13387;BME280;6763;48.524;9.044;2023-05-25T08:29:26;98212.63;;;22.25;33.75
13387;BME280;6763;48.524;9.044;2023-05-25T08:31:52;98214.88;;;22.31;33.58
13387;BME280;6763;48.524;9.044;2023-05-25T08:34:17;98210.28;;;22.35;33.64
13387;BME280;6763;48.524;9.044;2023-05-25T08:36:43;98205.44;;;22.57;33.64
13387;BME280;6763;48.524;9.044;2023-05-25T08:39:09;98207.13;;;22.88;33.23
13387;BME280;6763;48.524;9.044;2023-05-25T08:41:42;98211.53;;;23.15;33.14
13387;BME280;6763;48.524;9.044;2023-05-25T08:44:08;98203.03;;;23.38;32.80
13387;BME280;6763;48.524;9.044;2023-05-25T08:46:33;98208.56;;;23.62;32.28
13387;BME280;6763;48.524;9.044;2023-05-25T08:49:25;98206.84;;;23.61;31.91
13387;BME280;6763;48.524;9.044;2023-05-25T08:51:52;98208.94;;;23.56;32.12
13387;BME280;6763;48.524;9.044;2023-05-25T08:54:22;98214.53;;;23.52;32.11
13387;BME280;6763;48.524;9.044;2023-05-25T08:56:49;98213.75;;;23.35;32.19
13387;BME280;6763;48.524;9.044;2023-05-25T08:59:46;98213.19;;;23.30;32.48
13387;BME280;6763;48.524;9.044;2023-05-25T09:02:34;98214.63;;;23.50;32.54
13387;BME280;6763;48.524;9.044;2023-05-25T09:05:03;98206.50;;;23.80;32.21
13387;BME280;6763;48.524;9.044;2023-05-25T09:07:29;98206.03;;;24.00;31.90
13387;BME280;6763;48.524;9.044;2023-05-25T09:09:55;98216.81;;;24.11;31.83
13387;BME280;6763;48.524;9.044;2023-05-25T09:12:22;98212.00;;;24.30;31.87
13387;BME280;6763;48.524;9.044;2023-05-25T09:14:48;98214.34;;;24.47;31.88
13387;BME280;6763;48.524;9.044;2023-05-25T09:17:14;98212.34;;;24.63;31.40
13387;BME280;6763;48.524;9.044;2023-05-25T09:19:40;98218.22;;;24.81;31.47
13387;BME280;6763;48.524;9.044;2023-05-25T09:22:07;98212.28;;;25.03;31.19
13387;BME280;6763;48.524;9.044;2023-05-25T09:24:34;98211.03;;;25.32;30.75
13387;BME280;6763;48.524;9.044;2023-05-25T09:27:00;98221.94;;;25.65;30.55
13387;BME280;6763;48.524;9.044;2023-05-25T09:29:27;98216.59;;;26.02;30.13
13387;BME280;6763;48.524;9.044;2023-05-25T09:31:52;98219.81;;;26.53;29.67
13387;BME280;6763;48.524;9.044;2023-05-25T09:34:18;98210.97;;;26.98;28.88
13387;BME280;6763;48.524;9.044;2023-05-25T09:36:44;98217.97;;;27.32;28.67
13387;BME280;6763;48.524;9.044;2023-05-25T09:39:10;98218.94;;;27.64;28.29
13387;BME280;6763;48.524;9.044;2023-05-25T09:41:37;98224.72;;;27.81;28.17
13387;BME280;6763;48.524;9.044;2023-05-25T09:44:05;98214.22;;;27.68;27.92
13387;BME280;6763;48.524;9.044;2023-05-25T09:46:30;98215.94;;;27.36;27.91
13387;BME280;6763;48.524;9.044;2023-05-25T09:49:01;98205.66;;;27.20;28.61
13387;BME280;6763;48.524;9.044;2023-05-25T09:51:26;98208.66;;;27.27;28.30
13387;BME280;6763;48.524;9.044;2023-05-25T09:53:53;98205.66;;;27.53;28.21
13387;BME280;6763;48.524;9.044;2023-05-25T09:56:18;98204.00;;;27.84;27.64
13387;BME280;6763;48.524;9.044;2023-05-25T09:58:44;98200.63;;;27.93;27.72
13387;BME280;6763;48.524;9.044;2023-05-25T10:01:10;98213.47;;;28.20;27.26
13387;BME280;6763;48.524;9.044;2023-05-25T10:03:44;98205.69;;;28.49;26.78
13387;BME280;6763;48.524;9.044;2023-05-25T10:06:11;98206.91;;;28.76;26.77
13387;BME280;6763;48.524;9.044;2023-05-25T10:08:37;98203.66;;;28.73;26.23
13387;BME280;6763;48.524;9.044;2023-05-25T10:11:03;98214.78;;;28.46;26.87
13387;BME280;6763;48.524;9.044;2023-05-25T10:13:30;98229.84;;;28.36;26.98
13387;BME280;6763;48.524;9.044;2023-05-25T10:15:57;98217.66;;;28.34;27.02
13387;BME280;6763;48.524;9.044;2023-05-25T10:18:25;98215.78;;;28.45;26.90
13387;BME280;6763;48.524;9.044;2023-05-25T10:21:00;98224.78;;;28.33;26.46
13387;BME280;6763;48.524;9.044;2023-05-25T10:23:31;98232.88;;;28.11;26.86
13387;BME280;6763;48.524;9.044;2023-05-25T10:26:02;98218.78;;;27.77;26.97
13387;BME280;6763;48.524;9.044;2023-05-25T10:28:37;98229.72;;;27.41;27.59
13387;BME280;6763;48.524;9.044;2023-05-25T10:31:04;98228.38;;;27.35;27.80
13387;BME280;6763;48.524;9.044;2023-05-25T10:33:30;98230.41;;;27.32;27.91
13387;BME280;6763;48.524;9.044;2023-05-25T10:35:56;98213.38;;;27.34;28.00
13387;BME280;6763;48.524;9.044;2023-05-25T10:38:24;98218.09;;;27.53;27.71
13387;BME280;6763;48.524;9.044;2023-05-25T10:40:52;98221.28;;;27.90;27.70
13387;BME280;6763;48.524;9.044;2023-05-25T10:43:18;98223.78;;;28.13;26.78
13387;BME280;6763;48.524;9.044;2023-05-25T10:45:45;98224.19;;;28.09;26.81
13387;BME280;6763;48.524;9.044;2023-05-25T10:48:11;98233.13;;;27.97;27.00
13387;BME280;6763;48.524;9.044;2023-05-25T10:50:36;98223.28;;;27.65;27.16
13387;BME280;6763;48.524;9.044;2023-05-25T10:53:02;98224.03;;;27.45;27.76
13387;BME280;6763;48.524;9.044;2023-05-25T10:55:41;98222.94;;;27.48;27.51
13387;BME280;6763;48.524;9.044;2023-05-25T10:58:08;98224.63;;;27.38;27.71
13387;BME280;6763;48.524;9.044;2023-05-25T11:00:37;98216.16;;;27.22;27.99
13387;BME280;6763;48.524;9.044;2023-05-25T11:03:03;98220.63;;;27.32;27.85
13387;BME280;6763;48.524;9.044;2023-05-25T11:07:58;98220.41;;;27.35;28.15
13387;BME280;6763;48.524;9.044;2023-05-25T11:10:43;98233.59;;;27.48;28.23
13387;BME280;6763;48.524;9.044;2023-05-25T11:16:17;98226.16;;;27.85;27.88
13387;BME280;6763;48.524;9.044;2023-05-25T11:18:48;98218.72;;;28.10;27.45
13387;BME280;6763;48.524;9.044;2023-05-25T11:24:00;98224.28;;;28.07;26.79
13387;BME280;6763;48.524;9.044;2023-05-25T11:26:34;98210.84;;;27.66;27.67
13387;BME280;6763;48.524;9.044;2023-05-25T11:29:03;98214.50;;;27.43;27.86
13387;BME280;6763;48.524;9.044;2023-05-25T11:31:35;98217.03;;;27.33;28.15
13387;BME280;6763;48.524;9.044;2023-05-25T11:34:02;98222.94;;;27.15;28.62
13387;BME280;6763;48.524;9.044;2023-05-25T11:36:32;98219.56;;;27.24;28.78
13387;BME280;6763;48.524;9.044;2023-05-25T11:39:05;98216.44;;;27.52;28.57
13387;BME280;6763;48.524;9.044;2023-05-25T11:41:30;98216.75;;;27.69;28.20
13387;BME280;6763;48.524;9.044;2023-05-25T11:44:02;98219.66;;;27.78;27.66
13387;BME280;6763;48.524;9.044;2023-05-25T11:46:28;98216.03;;;27.67;27.73
13387;BME280;6763;48.524;9.044;2023-05-25T11:48:57;98211.53;;;27.79;27.81
13387;BME280;6763;48.524;9.044;2023-05-25T11:51:24;98215.72;;;28.04;27.86
13387;BME280;6763;48.524;9.044;2023-05-25T11:53:50;98218.88;;;28.29;27.28
13387;BME280;6763;48.524;9.044;2023-05-25T11:56:16;98206.91;;;28.56;27.43
13387;BME280;6763;48.524;9.044;2023-05-25T11:58:43;98222.75;;;28.78;26.80
13387;BME280;6763;48.524;9.044;2023-05-25T12:01:15;98208.97;;;28.94;26.88
13387;BME280;6763;48.524;9.044;2023-05-25T12:03:42;98219.88;;;28.90;26.51
13387;BME280;6763;48.524;9.044;2023-05-25T12:06:08;98213.63;;;28.60;26.89
13387;BME280;6763;48.524;9.044;2023-05-25T12:08:34;98210.06;;;28.50;26.77
13387;BME280;6763;48.524;9.044;2023-05-25T12:11:00;98205.91;;;28.57;26.74
13387;BME280;6763;48.524;9.044;2023-05-25T12:13:25;98212.91;;;28.69;27.09
13387;BME280;6763;48.524;9.044;2023-05-25T12:15:54;98205.25;;;28.85;26.79
13387;BME280;6763;48.524;9.044;2023-05-25T12:18:28;98211.59;;;28.84;26.56
13387;BME280;6763;48.524;9.044;2023-05-25T12:20:55;98219.63;;;28.94;26.32
13387;BME280;6763;48.524;9.044;2023-05-25T12:23:21;98212.41;;;29.05;26.47
13387;BME280;6763;48.524;9.044;2023-05-25T12:25:46;98218.88;;;29.12;26.28
13387;BME280;6763;48.524;9.044;2023-05-25T12:28:13;98218.19;;;29.10;26.45
13387;BME280;6763;48.524;9.044;2023-05-25T12:30:39;98217.84;;;29.24;26.22
13387;BME280;6763;48.524;9.044;2023-05-25T12:33:05;98211.13;;;29.30;25.94
13387;BME280;6763;48.524;9.044;2023-05-25T12:35:44;98216.06;;;29.14;25.80
13387;BME280;6763;48.524;9.044;2023-05-25T12:38:16;98223.97;;;29.15;25.58
13387;BME280;6763;48.524;9.044;2023-05-25T12:40:41;98222.91;;;29.07;25.88
13387;BME280;6763;48.524;9.044;2023-05-25T12:43:07;98226.09;;;29.01;25.88
13387;BME280;6763;48.524;9.044;2023-05-25T12:45:32;98229.09;;;29.07;26.35
13387;BME280;6763;48.524;9.044;2023-05-25T12:47:57;98217.84;;;29.24;26.29
13387;BME280;6763;48.524;9.044;2023-05-25T12:50:23;98218.28;;;29.29;25.82
13387;BME280;6763;48.524;9.044;2023-05-25T12:52:48;98217.13;;;29.22;25.92
13387;BME280;6763;48.524;9.044;2023-05-25T12:55:25;98228.03;;;29.19;25.95
13387;BME280;6763;48.524;9.044;2023-05-25T12:57:55;98226.28;;;29.09;26.15
13387;BME280;6763;48.524;9.044;2023-05-25T13:00:26;98210.47;;;29.17;26.32
13387;BME280;6763;48.524;9.044;2023-05-25T13:02:53;98210.16;;;29.31;26.16
13387;BME280;6763;48.524;9.044;2023-05-25T13:05:23;98216.09;;;29.44;25.98
13387;BME280;6763;48.524;9.044;2023-05-25T13:07:49;98217.53;;;29.58;25.89
13387;BME280;6763;48.524;9.044;2023-05-25T13:10:15;98212.97;;;29.88;25.55
13387;BME280;6763;48.524;9.044;2023-05-25T13:12:47;98217.66;;;30.15;25.25
13387;BME280;6763;48.524;9.044;2023-05-25T13:15:18;98220.34;;;30.05;24.94
13387;BME280;6763;48.524;9.044;2023-05-25T13:17:50;98212.34;;;29.66;25.03